Time;durP1;ratioP1;P1;durP2;ratioP2;P2;SDS_P1;SDS_P2;PMS_P1;PMS_P2;Temp;Humidity;BMP_temperature;BMP_pressure;BME280_temperature;BME280_humidity;BME280_pressure;Samples;Min_cycle;Max_cycle;Signal;HPM_P1;HPM_P2
2022/01/19 00:00:01;;;;;;;10.30;5.90;;;3.30;1.00;;;;;;5033575;28;20237;-61
2022/01/19 00:02:28;;;;;;;8.03;5.23;;;3.30;1.00;;;;;;5033430;28;20713;-61
2022/01/19 00:04:54;;;;;;;6.87;5.00;;;3.20;1.00;;;;;;5033878;28;20207;-61
2022/01/19 00:07:21;;;;;;;7.97;5.00;;;3.10;1.00;;;;;;5033546;28;20199;-60
2022/01/19 00:09:48;;;;;;;9.53;5.17;;;3.10;1.00;;;;;;5033457;28;20207;-60
2022/01/19 00:12:14;;;;;;;7.57;5.17;;;3.10;1.00;;;;;;5033390;28;20210;-60
2022/01/19 00:14:42;;;;;;;9.63;4.60;;;3.00;1.00;;;;;;5033242;28;20222;-61
2022/01/19 00:17:09;;;;;;;8.00;4.60;;;2.90;1.00;;;;;;5033415;28;20230;-60
2022/01/19 00:19:36;;;;;;;9.90;4.60;;;2.90;1.00;;;;;;5033237;28;20206;-61
2022/01/19 00:22:02;;;;;;;7.50;4.60;;;2.80;1.00;;;;;;5033520;28;20260;-61
2022/01/19 00:24:29;;;;;;;8.33;4.60;;;2.80;1.00;;;;;;5033029;28;20207;-60
2022/01/19 00:26:56;;;;;;;7.43;4.43;;;2.80;1.00;;;;;;5032999;28;20261;-59
2022/01/19 00:29:23;;;;;;;8.93;4.87;;;2.80;1.00;;;;;;5033640;28;20210;-61
2022/01/19 00:31:51;;;;;;;8.07;4.63;;;2.80;1.00;;;;;;5033230;28;20230;-61
2022/01/19 00:34:17;;;;;;;7.63;4.50;;;2.80;1.00;;;;;;5033297;28;20237;-61
2022/01/19 00:36:44;;;;;;;6.60;4.50;;;2.80;1.00;;;;;;5032766;28;20778;-61
2022/01/19 00:39:11;;;;;;;11.57;4.50;;;2.80;1.00;;;;;;5033097;28;20495;-61
2022/01/19 00:41:38;;;;;;;10.37;4.63;;;2.80;1.00;;;;;;5032811;28;20250;-61
2022/01/19 00:44:05;;;;;;;9.07;5.00;;;2.80;1.00;;;;;;5033136;28;20483;-61
2022/01/19 00:46:32;;;;;;;6.87;4.53;;;2.80;1.00;;;;;;5032746;28;20445;-61
2022/01/19 00:49:00;;;;;;;20.93;9.23;;;2.70;1.00;;;;;;5032788;28;20449;-61
2022/01/19 00:51:26;;;;;;;17.87;8.27;;;2.70;1.00;;;;;;5032805;28;20468;-61
2022/01/19 00:53:53;;;;;;;22.33;9.60;;;2.60;1.00;;;;;;5032369;28;20505;-61
2022/01/19 00:56:20;;;;;;;19.30;7.27;;;2.60;1.00;;;;;;5032694;28;20276;-60
2022/01/19 00:58:46;;;;;;;12.40;6.70;;;2.60;1.00;;;;;;5032385;28;20214;-61
2022/01/19 01:01:13;;;;;;;12.63;6.67;;;2.50;1.00;;;;;;5032531;28;20713;-61
2022/01/19 01:03:40;;;;;;;18.57;7.53;;;2.50;1.00;;;;;;5032364;28;20732;-61
2022/01/19 01:06:08;;;;;;;27.87;9.83;;;2.50;1.00;;;;;;5032433;28;20264;-61
2022/01/19 01:08:34;;;;;;;24.73;10.03;;;2.50;1.00;;;;;;5032335;28;21055;-61
2022/01/19 01:11:01;;;;;;;22.80;8.63;;;2.40;1.00;;;;;;5032425;28;20897;-59
2022/01/19 01:15:25;;;;;;;21.33;8.23;;;2.20;1.00;;;;;;5032491;28;20461;-60
2022/01/19 01:16:18;;;;;;;18.83;7.63;;;2.10;1.00;;;;;;5031862;28;20491;-61
2022/01/19 01:18:45;;;;;;;18.77;8.23;;;2.00;1.00;;;;;;5032303;28;20532;-60
2022/01/19 01:21:13;;;;;;;16.50;8.03;;;2.00;1.00;;;;;;5032021;28;20473;-61
2022/01/19 01:23:40;;;;;;;15.17;7.03;;;2.00;1.00;;;;;;5032411;28;20855;-61
2022/01/19 01:26:09;;;;;;;13.10;6.10;;;2.00;1.00;;;;;;5031804;28;20453;-61
2022/01/19 01:28:35;;;;;;;14.37;6.37;;;2.10;1.00;;;;;;5032760;28;20510;-59
2022/01/19 01:31:03;;;;;;;9.83;6.07;;;2.10;1.00;;;;;;5033670;28;20492;-60
2022/01/19 01:33:30;;;;;;;9.97;5.50;;;2.10;1.00;;;;;;5033360;28;20809;-60
2022/01/19 01:35:57;;;;;;;16.07;7.23;;;2.20;1.00;;;;;;5033126;28;20448;-59
2022/01/19 01:38:25;;;;;;;12.13;7.03;;;2.20;1.00;;;;;;5032821;28;20527;-61
2022/01/19 01:40:52;;;;;;;12.53;5.97;;;2.20;1.00;;;;;;5032466;28;20816;-61
2022/01/19 01:43:19;;;;;;;10.87;5.67;;;2.20;1.00;;;;;;5032166;28;20453;-59
2022/01/19 01:45:49;;;;;;;10.13;6.13;;;2.20;1.00;;;;;;5032696;28;20449;-61
2022/01/19 01:48:20;;;;;;;9.30;5.83;;;2.20;1.00;;;;;;5033001;28;20449;-61
2022/01/19 01:53:35;;;;;;;12.83;6.30;;;2.10;1.00;;;;;;5031813;28;20490;-60
2022/01/19 01:56:05;;;;;;;41.60;13.57;;;2.10;1.00;;;;;;5031944;28;20449;-61
2022/01/19 01:58:35;;;;;;;35.07;9.97;;;2.00;1.00;;;;;;5031588;28;20511;-61
2022/01/19 02:01:01;;;;;;;23.03;7.27;;;1.90;1.00;;;;;;5036124;28;20476;-61
2022/01/19 02:03:29;;;;;;;13.93;6.13;;;1.90;1.00;;;;;;5038456;28;20452;-61
2022/01/19 02:06:20;;;;;;;16.13;6.83;;;1.80;1.00;;;;;;5038074;28;20452;-61
2022/01/19 02:08:54;;;;;;;15.37;7.03;;;1.90;1.00;;;;;;5038350;28;20544;-60
2022/01/19 02:22:58;;;;;;;8.63;5.83;;;1.80;1.00;;;;;;5038276;28;20435;-58
2022/01/19 02:25:28;;;;;;;12.60;5.83;;;1.80;1.00;;;;;;5038214;28;20449;-62
2022/01/19 02:31:19;;;;;;;14.17;7.07;;;1.70;1.00;;;;;;5038501;28;21005;-60
2022/01/19 02:41:59;;;;;;;12.33;5.87;;;1.80;1.00;;;;;;5037973;28;20538;-60
2022/01/19 02:49:55;;;;;;;11.10;7.13;;;2.00;1.00;;;;;;5037755;28;20571;-58
2022/01/19 02:52:25;;;;;;;11.77;7.90;;;2.30;1.00;;;;;;5037889;28;20452;-60
2022/01/19 02:54:53;;;;;;;11.33;7.37;;;2.40;1.00;;;;;;5037590;28;20449;-60
2022/01/19 02:57:25;;;;;;;15.30;7.73;;;2.40;1.00;;;;;;5037629;28;21033;-60
2022/01/19 03:06:18;;;;;;;14.83;7.90;;;2.50;1.00;;;;;;5038018;28;20230;-60
2022/01/19 03:10:59;;;;;;;12.73;8.13;;;2.60;1.00;;;;;;5037488;28;20451;-60
2022/01/19 03:13:26;;;;;;;14.13;8.90;;;2.60;1.00;;;;;;5033275;28;20519;-60
2022/01/19 03:15:53;;;;;;;12.40;7.97;;;2.60;1.00;;;;;;5034747;28;20459;-60
2022/01/19 03:18:19;;;;;;;13.53;8.30;;;2.60;1.00;;;;;;5034414;28;20481;-60
2022/01/19 03:20:46;;;;;;;10.73;7.90;;;2.60;1.00;;;;;;5034475;28;20485;-60
2022/01/19 03:23:18;;;;;;;11.50;7.87;;;2.70;1.00;;;;;;5034473;28;20560;-59
2022/01/19 03:25:47;;;;;;;11.37;7.63;;;2.60;1.00;;;;;;5034499;28;20210;-60
2022/01/19 03:28:14;;;;;;;11.00;6.67;;;2.70;1.00;;;;;;5034197;28;20823;-61
2022/01/19 03:30:48;;;;;;;9.23;6.93;;;2.80;1.00;;;;;;5034248;28;20504;-60
2022/01/19 03:33:15;;;;;;;11.90;6.73;;;2.80;1.00;;;;;;5033012;28;20689;-59
2022/01/19 03:35:43;;;;;;;10.17;6.50;;;2.90;1.00;;;;;;5033259;28;20229;-58
2022/01/19 03:38:12;;;;;;;9.17;6.90;;;2.90;1.00;;;;;;5034020;28;20476;-58
2022/01/19 03:40:39;;;;;;;8.83;6.73;;;2.90;1.00;;;;;;5033721;28;20523;-60
2022/01/19 03:43:07;;;;;;;9.60;6.07;;;2.90;1.00;;;;;;5034234;28;20943;-55
2022/01/19 03:45:34;;;;;;;11.07;6.77;;;2.90;1.00;;;;;;5033861;28;20507;-58
2022/01/19 03:48:19;;;;;;;9.97;6.43;;;2.90;1.00;;;;;;5034313;28;20496;-59
2022/01/19 03:50:46;;;;;;;9.07;6.53;;;3.00;1.00;;;;;;5035098;28;20962;-60
2022/01/19 03:53:13;;;;;;;10.73;7.40;;;3.00;1.00;;;;;;5034000;28;20441;-60
2022/01/19 03:55:40;;;;;;;8.53;6.27;;;2.90;1.00;;;;;;5034047;28;20882;-60
2022/01/19 03:58:08;;;;;;;9.50;6.90;;;3.00;1.00;;;;;;5033657;28;20485;-59
2022/01/19 04:00:40;;;;;;;10.13;7.10;;;3.00;1.00;;;;;;5033756;28;20469;-60
2022/01/19 04:03:09;;;;;;;12.77;7.57;;;3.00;1.00;;;;;;5033542;28;20491;-60
2022/01/19 04:05:42;;;;;;;10.30;7.40;;;3.00;1.00;;;;;;5033533;28;20206;-60
2022/01/19 04:08:10;;;;;;;8.93;7.07;;;3.00;1.00;;;;;;5033732;28;20207;-59
2022/01/19 04:10:37;;;;;;;10.10;7.77;;;3.10;1.00;;;;;;5033965;28;20561;-60
2022/01/19 04:13:11;;;;;;;8.80;7.13;;;3.10;1.00;;;;;;5033566;28;20623;-58
2022/01/19 04:15:39;;;;;;;8.37;6.77;;;3.10;1.00;;;;;;5033600;28;20456;-60
2022/01/19 04:18:06;;;;;;;9.40;7.30;;;3.20;1.00;;;;;;5033083;28;20272;-60
2022/01/19 04:20:40;;;;;;;9.77;7.33;;;3.20;1.00;;;;;;5033374;28;20244;-60
2022/01/19 04:23:07;;;;;;;9.10;7.37;;;3.30;1.00;;;;;;5033658;28;20453;-60
2022/01/19 04:25:34;;;;;;;10.00;7.60;;;3.30;1.00;;;;;;5033079;28;20453;-59
2022/01/19 04:28:07;;;;;;;7.47;6.60;;;3.30;1.00;;;;;;5033149;28;21017;-59
2022/01/19 04:30:34;;;;;;;13.23;8.23;;;3.30;1.00;;;;;;5032924;28;20264;-60
2022/01/19 04:33:07;;;;;;;8.73;7.50;;;3.30;1.00;;;;;;5032664;28;20938;-61
2022/01/19 04:35:44;;;;;;;10.10;7.13;;;3.40;1.00;;;;;;5033344;28;20499;-59
2022/01/19 04:38:56;;;;;;;8.90;7.20;;;3.40;1.00;;;;;;5032896;28;20307;-61
2022/01/19 05:03:45;;;;;;;7.93;6.37;;;3.40;1.00;;;;;;5089057;28;20476;-57
2022/01/19 05:06:12;;;;;;;7.27;5.90;;;3.40;1.00;;;;;;5089014;28;20834;-58
2022/01/19 05:08:56;;;;;;;7.83;6.53;;;3.40;1.00;;;;;;5089056;28;20538;-57
2022/01/19 05:14:06;;;;;;;7.23;6.23;;;3.40;1.00;;;;;;5089013;28;20249;-57
2022/01/19 05:16:33;;;;;;;7.50;6.40;;;3.50;1.00;;;;;;5088357;28;20435;-58
2022/01/19 05:19:01;;;;;;;8.33;6.97;;;3.50;1.00;;;;;;5090452;28;20212;-61
2022/01/19 05:21:28;;;;;;;8.73;6.77;;;3.50;1.00;;;;;;5091233;28;20235;-61
2022/01/19 05:23:55;;;;;;;8.60;6.53;;;3.40;1.00;;;;;;5089599;28;20262;-60
2022/01/19 05:26:21;;;;;;;9.73;7.50;;;3.50;1.00;;;;;;5088559;28;20229;-61
2022/01/19 05:28:49;;;;;;;10.27;7.40;;;3.50;1.00;;;;;;5089728;28;20630;-61
2022/01/19 05:31:15;;;;;;;9.00;6.97;;;3.50;1.00;;;;;;5089525;28;20229;-60
2022/01/19 05:33:42;;;;;;;7.43;6.37;;;3.50;1.00;;;;;;5088928;28;20200;-60
2022/01/19 05:36:10;;;;;;;7.67;6.53;;;3.40;1.00;;;;;;5088546;28;20454;-60
2022/01/19 05:38:37;;;;;;;7.13;6.10;;;3.50;1.00;;;;;;5088430;28;20918;-60
2022/01/19 05:41:03;;;;;;;8.23;6.87;;;3.50;1.00;;;;;;5088465;28;20976;-60
2022/01/19 05:43:30;;;;;;;7.50;5.57;;;3.50;1.00;;;;;;5088564;28;20443;-61
2022/01/19 05:45:57;;;;;;;7.57;6.23;;;3.50;1.00;;;;;;5088430;28;20490;-60
2022/01/19 05:48:24;;;;;;;6.87;6.03;;;3.50;1.00;;;;;;5088611;28;20204;-60
2022/01/19 05:50:51;;;;;;;7.23;6.13;;;3.50;1.00;;;;;;5088375;28;20231;-58
2022/01/19 05:53:19;;;;;;;7.27;6.20;;;3.50;1.00;;;;;;5088017;28;20205;-62
2022/01/19 05:55:46;;;;;;;6.70;5.83;;;3.50;1.00;;;;;;5081451;28;20200;-62
2022/01/19 05:58:13;;;;;;;7.80;6.57;;;3.50;1.00;;;;;;5075890;28;20456;-62
2022/01/19 06:00:40;;;;;;;7.40;5.80;;;3.50;1.00;;;;;;5074030;28;20298;-62
2022/01/19 06:03:07;;;;;;;6.83;5.80;;;3.50;1.00;;;;;;5074076;28;20209;-62
2022/01/19 06:05:34;;;;;;;6.00;5.40;;;3.50;1.00;;;;;;5073658;28;20307;-61
2022/01/19 06:08:16;;;;;;;7.53;6.20;;;3.50;1.00;;;;;;5074361;28;20212;-62
2022/01/19 06:10:44;;;;;;;6.23;4.43;;;3.50;1.00;;;;;;5074086;28;20220;-62
2022/01/19 06:13:12;;;;;;;6.27;5.37;;;3.50;1.00;;;;;;5074026;28;20209;-62
2022/01/19 06:15:39;;;;;;;6.87;5.70;;;3.50;1.00;;;;;;5074056;28;20501;-62
2022/01/19 06:18:06;;;;;;;5.80;5.20;;;3.50;1.00;;;;;;5074054;28;20209;-62
2022/01/19 06:20:32;;;;;;;7.57;6.73;;;3.50;1.00;;;;;;5074229;28;20229;-61
2022/01/19 06:22:59;;;;;;;7.17;5.60;;;3.50;1.00;;;;;;5074190;28;20444;-62
2022/01/19 06:25:26;;;;;;;6.27;5.60;;;3.50;1.00;;;;;;5073221;28;20857;-62
2022/01/19 06:27:54;;;;;;;6.93;5.70;;;3.50;1.00;;;;;;5073599;28;20706;-62
2022/01/19 06:30:21;;;;;;;8.03;5.97;;;3.50;1.00;;;;;;5073906;28;20228;-62
2022/01/19 06:32:48;;;;;;;5.97;5.33;;;3.50;1.00;;;;;;5073936;28;20619;-62
2022/01/19 06:35:15;;;;;;;5.93;5.10;;;3.50;1.00;;;;;;5073079;28;20921;-62
2022/01/19 06:37:42;;;;;;;6.93;5.43;;;3.50;1.00;;;;;;5073274;28;20205;-61
2022/01/19 06:40:11;;;;;;;8.43;6.07;;;3.50;1.00;;;;;;5073180;28;20467;-62
2022/01/19 06:42:38;;;;;;;6.50;4.70;;;3.50;1.00;;;;;;5073629;28;20201;-61
2022/01/19 06:45:08;;;;;;;5.80;5.13;;;3.50;1.00;;;;;;5073364;28;20289;-63
2022/01/19 06:47:35;;;;;;;8.53;6.53;;;3.50;1.00;;;;;;5072900;28;20957;-58
2022/01/19 06:50:04;;;;;;;7.33;5.63;;;3.50;1.00;;;;;;5073723;28;20228;-61
2022/01/19 06:52:30;;;;;;;7.23;5.70;;;3.60;1.00;;;;;;5073159;28;20711;-61
2022/01/19 06:54:57;;;;;;;6.97;5.97;;;3.50;1.00;;;;;;5073095;28;20217;-61
2022/01/19 06:57:24;;;;;;;5.37;4.43;;;3.50;1.00;;;;;;5072748;28;20716;-60
2022/01/19 06:59:51;;;;;;;5.50;5.00;;;3.50;1.00;;;;;;5073343;28;20218;-61
2022/01/19 07:02:19;;;;;;;6.40;5.47;;;3.50;1.00;;;;;;5073452;28;20212;-62
2022/01/19 07:04:49;;;;;;;7.03;4.77;;;3.50;1.00;;;;;;5073038;28;20805;-61
2022/01/19 07:07:16;;;;;;;6.13;5.50;;;3.60;1.00;;;;;;5073205;28;20526;-60
2022/01/19 07:09:43;;;;;;;6.90;5.53;;;3.60;1.00;;;;;;5071922;28;20213;-61
2022/01/19 07:12:11;;;;;;;6.70;4.93;;;3.60;1.00;;;;;;5073115;28;20201;-60
2022/01/19 07:14:38;;;;;;;7.83;6.00;;;3.60;1.00;;;;;;5073124;28;20206;-61
2022/01/19 07:17:05;;;;;;;6.03;5.40;;;3.60;1.00;;;;;;5072188;28;20229;-61
2022/01/19 07:19:33;;;;;;;6.93;5.77;;;3.60;1.00;;;;;;5072578;28;20205;-60
2022/01/19 07:22:00;;;;;;;7.60;5.77;;;3.70;1.00;;;;;;5072691;28;20206;-60
2022/01/19 07:24:26;;;;;;;8.60;6.03;;;3.60;1.00;;;;;;5072729;28;20218;-59
2022/01/19 07:26:53;;;;;;;7.33;6.00;;;3.60;1.00;;;;;;5071886;28;20221;-58
2022/01/19 07:29:20;;;;;;;8.83;5.43;;;3.70;1.00;;;;;;5072499;28;20217;-60
2022/01/19 07:31:47;;;;;;;6.87;5.97;;;3.60;1.00;;;;;;5072341;28;20228;-59
2022/01/19 07:34:14;;;;;;;10.27;5.67;;;3.60;1.00;;;;;;5072767;28;20267;-59
2022/01/19 07:36:42;;;;;;;5.57;5.07;;;3.60;1.00;;;;;;5072746;28;20205;-60
2022/01/19 07:39:09;;;;;;;6.07;5.40;;;3.70;1.00;;;;;;5072507;28;20972;-60
2022/01/19 07:41:38;;;;;;;6.87;5.47;;;3.70;99.90;;;;;;5072378;28;20225;-60
2022/01/19 07:44:05;;;;;;;6.80;5.70;;;3.70;99.90;;;;;;5072138;28;20211;-60
2022/01/19 07:46:31;;;;;;;5.50;5.00;;;3.70;99.90;;;;;;5071166;28;20221;-61
2022/01/19 07:48:58;;;;;;;8.27;5.93;;;3.60;99.90;;;;;;5071999;28;20679;-61
2022/01/19 07:51:25;;;;;;;7.40;5.63;;;3.70;99.90;;;;;;5072574;28;20233;-61
2022/01/19 07:53:53;;;;;;;6.03;5.03;;;3.70;99.90;;;;;;5072179;28;20201;-61
2022/01/19 07:56:19;;;;;;;6.93;5.97;;;3.60;99.90;;;;;;5071393;28;20213;-59
2022/01/19 07:58:46;;;;;;;8.03;5.90;;;3.60;99.90;;;;;;5072131;28;20224;-64
2022/01/19 08:01:13;;;;;;;8.07;6.70;;;3.70;99.90;;;;;;5072045;28;20232;-59
2022/01/19 08:03:40;;;;;;;8.27;6.17;;;3.70;99.90;;;;;;5072060;28;20626;-61
2022/01/19 08:06:07;;;;;;;9.00;6.80;;;3.70;99.90;;;;;;5071517;28;20237;-59
2022/01/19 08:08:35;;;;;;;8.77;6.53;;;3.60;99.90;;;;;;5071510;28;20205;-59
2022/01/19 08:11:03;;;;;;;8.10;6.87;;;3.60;99.90;;;;;;5071881;28;20261;-58
2022/01/19 08:13:30;;;;;;;10.47;6.87;;;3.60;99.90;;;;;;5071656;28;20206;-59
2022/01/19 08:15:57;;;;;;;9.10;6.30;;;3.70;99.90;;;;;;5071201;28;20703;-60
2022/01/19 08:18:24;;;;;;;10.43;6.53;;;3.70;99.90;;;;;;5071961;28;20359;-58
2022/01/19 08:20:50;;;;;;;8.23;6.53;;;3.60;99.90;;;;;;5071307;28;20226;-58
2022/01/19 08:23:17;;;;;;;10.17;6.97;;;3.60;99.90;;;;;;5071651;28;20618;-58
2022/01/19 08:25:44;;;;;;;9.47;7.27;;;3.70;99.90;;;;;;5071073;28;20639;-55
2022/01/19 08:28:12;;;;;;;7.40;6.20;;;3.70;99.90;;;;;;5071029;28;20740;-58
2022/01/19 08:30:38;;;;;;;7.73;6.43;;;3.70;99.90;;;;;;5071871;28;20227;-57
2022/01/19 08:33:05;;;;;;;9.63;6.73;;;3.70;99.90;;;;;;5071360;28;20206;-59
2022/01/19 08:35:32;;;;;;;8.63;6.40;;;3.80;99.90;;;;;;5071439;28;20229;-57
2022/01/19 08:37:59;;;;;;;9.97;7.53;;;3.80;99.90;;;;;;5071130;28;20258;-55
2022/01/19 08:40:28;;;;;;;8.80;6.27;;;3.80;99.90;;;;;;5071364;28;20230;-59
2022/01/19 08:42:55;;;;;;;9.50;7.33;;;3.80;99.90;;;;;;5071155;28;20220;-60
2022/01/19 08:45:24;;;;;;;11.87;8.30;;;3.80;99.90;;;;;;5071202;28;20223;-62
2022/01/19 08:47:51;;;;;;;9.30;7.13;;;3.80;99.90;;;;;;5071255;28;20222;-60
2022/01/19 08:50:19;;;;;;;10.17;8.00;;;3.80;99.90;;;;;;5071059;28;20661;-60
2022/01/19 08:52:46;;;;;;;15.33;8.30;;;3.80;99.90;;;;;;5071441;28;20207;-59
2022/01/19 08:55:14;;;;;;;9.83;7.20;;;3.80;99.90;;;;;;5070328;28;20226;-60
2022/01/19 08:57:42;;;;;;;13.97;9.40;;;3.70;99.90;;;;;;5070930;28;20197;-59
2022/01/19 09:00:13;;;;;;;12.93;9.27;;;3.70;99.90;;;;;;5071189;28;20222;-59
2022/01/19 09:02:41;;;;;;;12.37;9.40;;;3.70;99.90;;;;;;5071096;28;20211;-60
2022/01/19 09:05:09;;;;;;;16.13;10.50;;;3.70;99.90;;;;;;5071573;28;20726;-62
2022/01/19 09:07:35;;;;;;;10.50;7.83;;;3.70;99.90;;;;;;5071072;28;20241;-64
2022/01/19 09:10:03;;;;;;;15.13;10.97;;;3.70;99.90;;;;;;5074014;28;20704;-63
2022/01/19 09:12:30;;;;;;;16.30;10.90;;;3.60;99.90;;;;;;5073952;28;20205;-60
2022/01/19 09:14:57;;;;;;;16.20;10.70;;;3.50;99.90;;;;;;5072769;28;20271;-59
2022/01/19 09:17:24;;;;;;;15.40;10.57;;;3.50;99.90;;;;;;5073052;28;20203;-63
2022/01/19 09:19:52;;;;;;;18.37;11.77;;;3.40;99.90;;;;;;5073310;28;20294;-63
2022/01/19 09:22:19;;;;;;;14.70;10.87;;;3.50;99.90;;;;;;5074718;28;20271;-62
2022/01/19 09:24:47;;;;;;;17.93;11.40;;;3.50;99.90;;;;;;5074832;28;20206;-63
2022/01/19 09:27:15;;;;;;;17.27;11.17;;;3.40;99.90;;;;;;5071476;28;20227;-60
2022/01/19 09:29:45;;;;;;;18.30;11.63;;;3.40;99.90;;;;;;5070217;28;20234;-60
2022/01/19 09:32:12;;;;;;;16.37;10.73;;;3.40;99.90;;;;;;5072157;28;20206;-64
2022/01/19 09:34:41;;;;;;;16.83;10.37;;;3.30;99.90;;;;;;5074455;28;20202;-62
2022/01/19 09:37:09;;;;;;;15.40;10.33;;;3.40;99.90;;;;;;5073966;28;20211;-63
2022/01/19 09:39:36;;;;;;;17.23;10.70;;;3.40;99.90;;;;;;5074784;28;20206;-63
2022/01/19 09:42:03;;;;;;;15.90;10.77;;;3.40;99.90;;;;;;5074514;28;20581;-63
2022/01/19 09:44:31;;;;;;;15.13;10.33;;;3.40;99.90;;;;;;5075024;28;20209;-60
2022/01/19 09:46:58;;;;;;;15.40;10.67;;;3.40;99.90;;;;;;5073461;28;20612;-60
2022/01/19 09:49:25;;;;;;;15.23;10.37;;;3.50;99.90;;;;;;5074163;28;20739;-56
2022/01/19 09:51:54;;;;;;;14.73;9.93;;;3.40;99.90;;;;;;5074439;28;20230;-58
2022/01/19 09:54:24;;;;;;;16.03;10.03;;;3.40;99.90;;;;;;5074224;28;20289;-59
2022/01/19 09:56:51;;;;;;;17.63;11.07;;;3.40;99.90;;;;;;5074072;28;20582;-58
2022/01/19 09:59:18;;;;;;;15.63;10.30;;;3.40;99.90;;;;;;5074445;28;20231;-60
2022/01/19 10:01:54;;;;;;;19.00;11.43;;;3.40;99.90;;;;;;5074240;28;20221;-58
2022/01/19 10:04:22;;;;;;;15.73;10.30;;;3.50;99.90;;;;;;5074080;28;20205;-58
2022/01/19 10:06:49;;;;;;;19.40;11.50;;;3.40;99.90;;;;;;5073814;28;20221;-58
2022/01/19 10:09:29;;;;;;;15.87;11.00;;;3.50;99.90;;;;;;5075456;28;20349;-59
2022/01/19 10:17:39;;;;;;;16.97;10.20;;;3.60;99.90;;;;;;5073515;28;20197;-60
2022/01/19 10:20:19;;;;;;;15.67;10.63;;;3.60;99.90;;;;;;5073948;28;20230;-60
2022/01/19 10:22:46;;;;;;;17.37;11.07;;;3.70;99.90;;;;;;5073608;28;20202;-61
2022/01/19 10:25:14;;;;;;;15.57;11.00;;;3.70;99.90;;;;;;5073649;28;20864;-60
2022/01/19 10:27:42;;;;;;;18.43;11.23;;;3.60;99.90;;;;;;5073493;28;20717;-59
2022/01/19 10:30:18;;;;;;;16.10;10.57;;;3.60;99.90;;;;;;5074041;28;20704;-60
2022/01/19 10:32:49;;;;;;;15.13;10.80;;;3.60;99.90;;;;;;5073781;28;20219;-58
2022/01/19 10:35:19;;;;;;;18.57;12.27;;;3.60;99.90;;;;;;5073181;28;20209;-62
2022/01/19 10:37:48;;;;;;;16.07;10.57;;;3.70;99.90;;;;;;5073456;28;20210;-62
2022/01/19 10:40:18;;;;;;;18.67;11.73;;;3.70;99.90;;;;;;5073218;28;20229;-61
2022/01/19 10:42:45;;;;;;;15.17;10.27;;;3.80;99.90;;;;;;5073794;28;20201;-62
2022/01/19 10:45:13;;;;;;;16.07;10.60;;;3.70;99.90;;;;;;5073194;28;20215;-62
2022/01/19 10:47:47;;;;;;;16.47;11.27;;;3.80;99.90;;;;;;5073195;28;20211;-63
2022/01/19 10:50:15;;;;;;;18.63;11.20;;;3.80;99.90;;;;;;5073645;28;20317;-63
2022/01/19 10:52:44;;;;;;;17.87;11.97;;;3.90;99.90;;;;;;5073102;28;20203;-62
2022/01/19 10:55:12;;;;;;;19.40;11.33;;;3.90;99.90;;;;;;5073220;28;20211;-64
2022/01/19 10:57:43;;;;;;;18.37;10.23;;;4.00;99.90;;;;;;5072792;28;20204;-63
2022/01/19 11:00:15;;;;;;;16.43;10.97;;;4.00;99.90;;;;;;5073678;28;20232;-63
2022/01/19 11:02:43;;;;;;;20.17;12.17;;;4.10;99.90;;;;;;5075291;28;20604;-64
2022/01/19 11:05:10;;;;;;;19.57;11.83;;;4.10;99.90;;;;;;5072971;28;20225;-63
2022/01/19 11:07:37;;;;;;;17.10;10.63;;;4.20;99.90;;;;;;5072800;28;20707;-65
2022/01/19 11:10:10;;;;;;;16.83;11.10;;;4.20;99.90;;;;;;5072836;28;20235;-63
2022/01/19 11:12:44;;;;;;;15.30;10.77;;;4.30;99.90;;;;;;5072827;28;20844;-59
2022/01/19 11:15:13;;;;;;;17.90;11.67;;;4.30;99.90;;;;;;5072770;28;20211;-64
2022/01/19 11:17:40;;;;;;;15.97;10.50;;;4.30;99.90;;;;;;5072446;28;20201;-62
2022/01/19 11:20:10;;;;;;;15.73;10.97;;;4.20;99.90;;;;;;5073104;28;20257;-64
2022/01/19 11:22:54;;;;;;;17.73;10.70;;;4.20;99.90;;;;;;5072486;28;20218;-59
2022/01/19 11:25:27;;;;;;;16.10;11.63;;;4.20;99.90;;;;;;5072461;28;20211;-63
2022/01/19 11:27:55;;;;;;;17.50;11.30;;;4.10;99.90;;;;;;5072535;28;20323;-63
2022/01/19 11:30:25;;;;;;;20.90;11.77;;;4.10;99.90;;;;;;5072985;28;20724;-63
2022/01/19 11:33:24;;;;;;;17.87;10.60;;;4.10;99.90;;;;;;5072482;28;20210;-61
2022/01/19 11:35:53;;;;;;;18.57;11.47;;;4.10;99.90;;;;;;5038586;28;20237;-60
2022/01/19 11:38:36;;;;;;;20.37;12.43;;;4.10;99.90;;;;;;5072592;28;20578;-61
2022/01/19 11:41:25;;;;;;;16.17;10.40;;;4.10;99.90;;;;;;5072391;28;20248;-60
2022/01/19 11:43:53;;;;;;;15.73;10.30;;;4.10;99.90;;;;;;5071815;28;20603;-59
2022/01/19 11:46:31;;;;;;;18.77;10.93;;;4.20;99.90;;;;;;5071284;28;20220;-58
2022/01/19 11:48:58;;;;;;;16.70;11.20;;;4.30;99.90;;;;;;5071981;28;20717;-60
2022/01/19 11:51:29;;;;;;;16.73;10.83;;;4.20;99.90;;;;;;5071992;28;20228;-59
2022/01/19 11:54:08;;;;;;;17.67;11.30;;;4.20;99.90;;;;;;5074317;28;20263;-60
2022/01/19 11:57:11;;;;;;;17.67;11.30;;;4.20;99.90;;;;;;5071575;28;20671;-58
2022/01/19 12:00:17;;;;;;;16.67;11.10;;;4.20;99.90;;;;;;5072550;28;20210;-57
2022/01/19 12:02:48;;;;;;;16.67;11.27;;;4.20;99.90;;;;;;5074289;28;20214;-60
2022/01/19 12:05:18;;;;;;;16.27;11.73;;;4.30;99.90;;;;;;5076741;28;20556;-62
2022/01/19 12:07:48;;;;;;;20.27;11.40;;;4.40;99.90;;;;;;5075430;28;20227;-65
2022/01/19 12:10:19;;;;;;;16.23;11.60;;;4.30;99.90;;;;;;5072545;28;20737;-66
2022/01/19 12:12:55;;;;;;;18.30;11.80;;;4.30;99.90;;;;;;5072131;28;20215;-65
2022/01/19 12:15:56;;;;;;;17.57;11.60;;;4.40;99.90;;;;;;5071297;28;20204;-64
2022/01/19 12:18:48;;;;;;;19.67;12.00;;;4.30;99.90;;;;;;5010184;28;20205;-60
2022/01/19 12:21:36;;;;;;;18.83;10.97;;;4.20;99.90;;;;;;5072546;28;20223;-61
2022/01/19 12:24:15;;;;;;;17.17;11.03;;;4.20;99.90;;;;;;5076609;28;20192;-61
2022/01/19 12:26:49;;;;;;;19.00;12.70;;;4.10;99.90;;;;;;5073318;28;20192;-60
2022/01/19 12:29:39;;;;;;;19.00;12.23;;;4.10;99.90;;;;;;5071923;28;20225;-60
2022/01/19 12:32:09;;;;;;;16.60;11.47;;;4.20;99.90;;;;;;5071625;28;20193;-60
2022/01/19 12:34:43;;;;;;;18.23;11.77;;;4.30;99.90;;;;;;5071936;28;20294;-62
2022/01/19 12:37:11;;;;;;;18.93;12.07;;;4.30;99.90;;;;;;5070674;28;20202;-62
2022/01/19 12:39:43;;;;;;;17.17;11.53;;;4.20;99.90;;;;;;5071770;28;20216;-61
2022/01/19 12:42:18;;;;;;;17.97;12.63;;;4.20;99.90;;;;;;5072115;28;20615;-63
2022/01/19 12:44:49;;;;;;;17.53;11.63;;;4.10;99.90;;;;;;5073038;28;20219;-63
2022/01/19 12:47:45;;;;;;;16.43;11.40;;;4.10;99.90;;;;;;5071650;28;20206;-62
2022/01/19 12:50:54;;;;;;;17.40;11.23;;;4.20;99.90;;;;;;5071373;28;20233;-63
2022/01/19 12:53:25;;;;;;;16.43;11.03;;;4.20;99.90;;;;;;5072777;28;20212;-61
2022/01/19 12:55:59;;;;;;;18.03;11.40;;;4.30;99.90;;;;;;5074332;28;20222;-61
2022/01/19 12:58:31;;;;;;;18.13;12.50;;;4.20;99.90;;;;;;5074142;28;20210;-62
2022/01/19 13:01:01;;;;;;;17.23;11.63;;;4.20;99.90;;;;;;5071204;28;20221;-60
2022/01/19 13:03:32;;;;;;;17.53;11.90;;;4.20;99.90;;;;;;5071626;28;20210;-60
2022/01/19 13:06:02;;;;;;;17.97;11.70;;;4.10;99.90;;;;;;5072805;28;20286;-62
2022/01/19 13:08:35;;;;;;;16.77;11.40;;;4.10;99.90;;;;;;5077304;28;20258;-62
2022/01/19 13:11:07;;;;;;;17.17;11.33;;;4.20;99.90;;;;;;5057010;28;20308;-61
2022/01/19 13:13:49;;;;;;;19.07;11.97;;;4.10;99.90;;;;;;5057433;28;20583;-61
2022/01/19 13:16:26;;;;;;;20.73;12.70;;;4.10;99.90;;;;;;5068830;28;20219;-62
2022/01/19 13:18:53;;;;;;;19.20;10.33;;;4.20;99.90;;;;;;5077444;28;20195;-61
2022/01/19 13:21:23;;;;;;;19.30;12.37;;;4.20;99.90;;;;;;5075411;28;20286;-62
2022/01/19 13:23:59;;;;;;;21.43;13.13;;;4.20;99.90;;;;;;5074593;28;20312;-62
2022/01/19 13:26:36;;;;;;;21.63;14.33;;;4.20;99.90;;;;;;5074672;28;20593;-62
2022/01/19 13:29:13;;;;;;;33.70;18.57;;;4.20;99.90;;;;;;5075083;28;20232;-60
2022/01/19 13:31:39;;;;;;;19.57;12.90;;;4.20;99.90;;;;;;5075097;28;20222;-61
2022/01/19 13:34:06;;;;;;;20.10;12.60;;;4.20;99.90;;;;;;5074890;28;20211;-62
2022/01/19 13:36:35;;;;;;;16.37;11.13;;;4.10;99.90;;;;;;5073228;28;20699;-62
2022/01/19 13:39:05;;;;;;;16.43;11.17;;;4.20;99.90;;;;;;5075291;28;20204;-61
2022/01/19 13:41:32;;;;;;;19.80;12.17;;;4.10;99.90;;;;;;5075943;28;20226;-62
2022/01/19 13:44:04;;;;;;;17.90;12.33;;;4.10;99.90;;;;;;5074563;28;20276;-62
2022/01/19 13:46:32;;;;;;;21.87;12.77;;;4.00;99.90;;;;;;5073587;28;20222;-62
2022/01/19 13:49:02;;;;;;;20.83;13.23;;;4.00;99.90;;;;;;5073905;28;20605;-60
2022/01/19 13:51:30;;;;;;;19.53;13.43;;;4.10;99.90;;;;;;5074638;28;20231;-57
2022/01/19 13:54:01;;;;;;;21.13;13.43;;;4.10;99.90;;;;;;5074591;28;20224;-56
2022/01/19 13:56:31;;;;;;;19.30;13.13;;;4.10;99.90;;;;;;5073908;28;20225;-58
2022/01/19 13:59:03;;;;;;;20.77;13.40;;;4.00;99.90;;;;;;5074166;28;20215;-63
2022/01/19 14:01:35;;;;;;;20.67;12.90;;;4.10;99.90;;;;;;5073932;28;20225;-61
2022/01/19 14:04:07;;;;;;;22.87;13.00;;;4.00;99.90;;;;;;5074333;28;20195;-62
2022/01/19 14:06:35;;;;;;;21.37;12.83;;;3.90;99.90;;;;;;5073580;28;20212;-62
2022/01/19 14:09:08;;;;;;;20.23;12.97;;;3.90;99.90;;;;;;5073912;28;20773;-59
2022/01/19 14:11:37;;;;;;;20.27;13.17;;;3.90;99.90;;;;;;5073916;28;20602;-60
2022/01/19 14:14:06;;;;;;;21.47;13.03;;;3.90;99.90;;;;;;5073912;28;20201;-61
2022/01/19 14:16:37;;;;;;;19.57;12.07;;;3.90;99.90;;;;;;5072568;28;20210;-61